Time;durP1;ratioP1;P1;durP2;ratioP2;P2;SDS_P1;SDS_P2;PMS_P1;PMS_P2;Temp;Humidity;BMP_temperature;BMP_pressure;BME280_temperature;BME280_humidity;BME280_pressure;Samples;Min_cycle;Max_cycle;Signal;HPM_P1;HPM_P2
2021/03/11 00:01:46;;;;;;;35.53;24.13;;;;;;;7.04;72.25;100090.97;5079840;28;20177;-71
2021/03/11 00:04:11;;;;;;;34.47;24.20;;;;;;;7.24;71.55;100096.41;5079627;28;20173;-74
2021/03/11 00:06:36;;;;;;;35.30;24.17;;;;;;;6.97;71.76;100086.56;5079727;28;20173;-72
2021/03/11 00:09:02;;;;;;;36.00;24.20;;;;;;;7.17;71.25;100083.34;5079757;28;20539;-73
2021/03/11 00:11:27;;;;;;;39.07;25.20;;;;;;;6.84;72.06;100085.50;5079192;28;20561;-75
2021/03/11 00:13:52;;;;;;;35.63;24.73;;;;;;;6.55;73.72;100064.38;5079744;28;20207;-73
2021/03/11 00:16:17;;;;;;;35.27;25.70;;;;;;;6.61;74.32;100074.81;5079434;28;20518;-75
2021/03/11 00:18:43;;;;;;;39.53;25.80;;;;;;;6.80;75.19;100062.13;5078781;28;20184;-72
2021/03/11 00:21:08;;;;;;;35.10;23.80;;;;;;;6.99;72.81;100056.34;5079415;28;20188;-73
2021/03/11 00:23:34;;;;;;;39.97;25.37;;;;;;;6.40;74.75;100052.06;5079180;28;20445;-72
2021/03/11 00:25:59;;;;;;;36.80;24.57;;;;;;;6.70;74.88;100043.00;5078201;28;20250;-73
2021/03/11 00:28:25;;;;;;;37.93;25.30;;;;;;;6.99;73.69;100053.75;5079810;28;20173;-77
2021/03/11 00:30:50;;;;;;;38.10;24.90;;;;;;;6.50;75.21;100038.41;5078969;28;20212;-77
2021/03/11 00:33:16;;;;;;;38.80;26.10;;;;;;;6.77;74.95;100036.19;5079181;28;20180;-73
2021/03/11 00:35:41;;;;;;;36.53;25.37;;;;;;;6.86;74.46;100026.81;5079467;28;20181;-75
2021/03/11 00:38:06;;;;;;;38.57;25.10;;;;;;;6.61;76.34;100020.44;5078603;28;20173;-75
2021/03/11 00:40:33;;;;;;;41.40;27.60;;;;;;;7.10;74.44;100008.97;5078779;28;20225;-74
2021/03/11 00:42:59;;;;;;;41.37;27.50;;;;;;;7.23;73.69;99995.31;5079024;28;20315;-75
2021/03/11 00:45:24;;;;;;;40.77;26.90;;;;;;;7.03;73.62;99992.47;5078724;28;20858;-75
2021/03/11 00:47:49;;;;;;;44.07;30.00;;;;;;;7.26;73.46;99987.56;5078588;28;20455;-73
2021/03/11 00:50:17;;;;;;;44.70;28.83;;;;;;;7.16;74.01;99983.13;5079144;28;20224;-75
2021/03/11 00:52:42;;;;;;;39.47;27.50;;;;;;;6.47;75.45;99985.69;5078550;28;20215;-74
2021/03/11 00:55:10;;;;;;;40.37;26.60;;;;;;;6.43;74.90;99978.72;5078748;28;20674;-78
2021/03/11 00:57:35;;;;;;;42.90;27.73;;;;;;;6.92;75.40;99963.84;5079740;28;20557;-77
2021/03/11 01:00:02;;;;;;;38.00;25.73;;;;;;;6.67;75.02;99948.00;5080366;28;20459;-76
2021/03/11 01:02:27;;;;;;;40.10;26.70;;;;;;;6.82;74.22;99947.31;5082651;28;20188;-74
2021/03/11 01:04:53;;;;;;;38.00;25.90;;;;;;;6.73;73.27;99952.38;5079012;28;20449;-72
2021/03/11 01:07:18;;;;;;;32.23;24.17;;;;;;;6.50;74.78;99929.66;5079514;28;20227;-72
2021/03/11 01:09:44;;;;;;;37.83;26.03;;;;;;;7.10;73.36;99926.03;5078718;28;20208;-72
2021/03/11 01:12:12;;;;;;;34.83;25.03;;;;;;;6.28;74.84;99938.84;5079582;28;20246;-76
2021/03/11 01:14:38;;;;;;;35.53;23.27;;;;;;;6.50;75.26;99931.38;5082236;28;20232;-77
2021/03/11 01:17:03;;;;;;;36.20;25.60;;;;;;;6.36;74.70;99905.28;5083373;28;20435;-74
2021/03/11 01:19:28;;;;;;;33.87;24.87;;;;;;;6.43;75.56;99890.69;5084266;28;20183;-75
2021/03/11 01:21:54;;;;;;;32.73;22.83;;;;;;;6.52;74.49;99880.47;5082464;28;20181;-76
2021/03/11 01:24:19;;;;;;;36.90;23.67;;;;;;;6.39;75.10;99872.53;5083437;28;20181;-74
2021/03/11 01:26:44;;;;;;;33.70;23.97;;;;;;;6.57;74.52;99863.25;5083153;28;20223;-73
2021/03/11 01:29:10;;;;;;;37.10;26.30;;;;;;;6.54;74.57;99858.06;5084017;28;20191;-73
2021/03/11 01:31:36;;;;;;;35.90;25.17;;;;;;;6.46;75.92;99854.50;5084777;28;20193;-73
2021/03/11 01:34:01;;;;;;;34.60;23.90;;;;;;;6.33;75.90;99838.84;5084234;28;20172;-73
2021/03/11 01:36:26;;;;;;;31.97;22.93;;;;;;;6.34;74.73;99830.19;5086797;28;20322;-75
2021/03/11 01:38:52;;;;;;;32.63;23.60;;;;;;;6.56;75.31;99853.75;5085983;28;20199;-74
2021/03/11 01:41:17;;;;;;;31.70;23.17;;;;;;;6.29;75.59;99820.63;5084961;28;20181;-74
2021/03/11 01:43:42;;;;;;;31.10;22.47;;;;;;;6.48;75.53;99826.91;5085077;28;20180;-73
2021/03/11 01:46:08;;;;;;;32.10;23.67;;;;;;;6.78;74.36;99825.50;5086241;28;20161;-73
2021/03/11 01:48:33;;;;;;;32.83;23.73;;;;;;;6.67;74.00;99826.28;5084192;28;20169;-73
2021/03/11 01:50:58;;;;;;;30.43;21.33;;;;;;;6.34;74.37;99837.09;5080980;28;20203;-75
2021/03/11 01:53:24;;;;;;;32.73;22.43;;;;;;;6.66;73.62;99839.22;5080274;28;20169;-74
2021/03/11 01:55:49;;;;;;;31.13;22.40;;;;;;;6.43;74.53;99821.69;5077976;28;20192;-74
2021/03/11 01:58:14;;;;;;;29.47;21.00;;;;;;;6.20;74.74;99811.91;5077318;28;20200;-73
2021/03/11 02:00:40;;;;;;;32.93;21.97;;;;;;;6.51;74.90;99817.47;5077772;28;20165;-75
2021/03/11 02:03:05;;;;;;;28.20;20.57;;;;;;;6.30;75.00;99791.31;5077309;28;20223;-76
2021/03/11 02:05:30;;;;;;;29.40;21.50;;;;;;;6.38;75.19;99787.09;5078280;28;20200;-74
2021/03/11 02:07:56;;;;;;;31.93;22.73;;;;;;;6.84;74.48;99784.97;5078461;28;20445;-74
2021/03/11 02:10:24;;;;;;;28.77;21.43;;;;;;;6.14;75.80;99769.56;5077610;28;20225;-73
2021/03/11 02:13:10;;;;;;;29.80;21.00;;;;;;;6.74;75.06;99770.22;5076874;28;20290;-74
2021/03/11 02:15:41;;;;;;;35.23;22.57;;;;;;;6.55;75.64;99751.03;5077668;28;20449;-74
2021/03/11 02:18:14;;;;;;;29.33;21.47;;;;;;;6.54;74.75;99738.94;5076811;28;20415;-73
2021/03/11 02:20:58;;;;;;;32.40;23.87;;;;;;;7.10;73.65;99718.69;5077099;28;20426;-74
2021/03/11 02:24:06;;;;;;;31.87;22.13;;;;;;;6.35;75.03;99707.69;5081551;28;20494;-73
2021/03/11 02:27:00;;;;;;;34.53;24.33;;;;;;;6.65;75.08;99689.84;5081147;28;20459;-75
2021/03/11 02:29:32;;;;;;;31.13;22.83;;;;;;;6.57;76.02;99679.41;5080575;28;20457;-72
2021/03/11 02:31:58;;;;;;;30.77;22.33;;;;;;;6.47;75.95;99672.41;5080644;28;20411;-72
2021/03/11 02:34:27;;;;;;;29.70;22.00;;;;;;;6.43;74.90;99657.69;5081124;28;20418;-73
2021/03/11 02:36:55;;;;;;;34.40;22.47;;;;;;;6.66;75.35;99644.97;5081386;28;20419;-74
2021/03/11 02:39:22;;;;;;;30.10;23.73;;;;;;;6.42;75.68;99645.63;5081101;28;20419;-72
2021/03/11 02:41:48;;;;;;;29.40;22.23;;;;;;;6.50;75.83;99643.97;5080526;28;20399;-71
2021/03/11 02:44:15;;;;;;;31.37;21.80;;;;;;;6.60;76.36;99638.00;5080455;28;20663;-71
2021/03/11 02:46:40;;;;;;;19.83;15.03;;;;;;;8.36;78.79;99623.22;5080410;28;20419;-70
2021/03/11 02:49:06;;;;;;;20.77;14.27;;;;;;;12.07;63.24;99592.00;5080982;28;20403;-69
2021/03/11 02:51:32;;;;;;;31.10;19.70;;;;;;;8.31;69.03;99593.75;5080098;28;20168;-78
2021/03/11 02:53:57;;;;;;;24.27;20.00;;;;;;;7.66;72.10;99591.06;5080204;28;20181;-78
2021/03/11 02:56:24;;;;;;;25.13;19.80;;;;;;;7.19;74.53;99594.34;5091200;28;20518;-77
2021/03/11 02:58:51;;;;;;;29.80;21.20;;;;;;;7.28;73.73;99591.78;5081492;28;20171;-76
2021/03/11 03:01:17;;;;;;;28.73;21.63;;;;;;;7.02;75.06;99579.56;5080668;28;20812;-77
2021/03/11 03:03:43;;;;;;;26.50;19.30;;;;;;;6.61;75.99;99580.16;5081083;28;20433;-78
2021/03/11 03:06:10;;;;;;;27.33;21.80;;;;;;;7.03;75.45;99557.09;5079919;28;20411;-77
2021/03/11 03:08:35;;;;;;;30.43;21.10;;;;;;;7.02;75.05;99570.91;5080722;28;20510;-78
2021/03/11 03:11:01;;;;;;;29.50;21.10;;;;;;;6.76;76.38;99547.47;5080373;28;20537;-78
2021/03/11 03:13:26;;;;;;;32.53;22.37;;;;;;;6.65;75.93;99545.66;5079810;28;20207;-77
2021/03/11 03:15:55;;;;;;;29.90;21.80;;;;;;;6.66;77.12;99536.19;5080519;28;20222;-77
2021/03/11 03:18:21;;;;;;;24.80;18.73;;;;;;;6.99;75.14;99517.34;5080272;28;20165;-77
2021/03/11 03:20:46;;;;;;;22.33;16.53;;;;;;;6.78;75.39;99517.25;5079484;28;20413;-77
2021/03/11 03:23:12;;;;;;;26.23;19.33;;;;;;;7.24;75.03;99525.25;5079500;28;20251;-77
2021/03/11 03:25:37;;;;;;;23.63;18.30;;;;;;;7.35;74.73;99513.16;5080251;28;20540;-75
2021/03/11 03:28:03;;;;;;;25.30;19.60;;;;;;;7.29;74.73;99507.97;5080192;28;20172;-75
2021/03/11 03:30:28;;;;;;;25.23;18.43;;;;;;;7.68;73.34;99490.75;5080181;28;20197;-75
2021/03/11 03:32:54;;;;;;;22.50;18.60;;;;;;;7.33;74.59;99477.72;5079567;28;20172;-76
2021/03/11 03:35:22;;;;;;;23.70;18.70;;;;;;;6.90;74.89;99483.63;5080102;28;20443;-76
2021/03/11 03:37:47;;;;;;;24.30;20.10;;;;;;;7.06;75.14;99466.41;5080430;28;20173;-76
2021/03/11 03:40:13;;;;;;;22.43;18.17;;;;;;;7.35;73.48;99463.91;5079271;28;20469;-76
2021/03/11 03:42:45;;;;;;;24.57;18.50;;;;;;;7.35;74.49;99474.28;5079776;28;20173;-76
2021/03/11 03:45:14;;;;;;;23.80;19.00;;;;;;;7.29;75.35;99456.09;5080230;28;20411;-77
2021/03/11 03:47:41;;;;;;;23.50;16.93;;;;;;;6.80;77.19;99455.97;5079173;28;20419;-77
2021/03/11 03:50:07;;;;;;;23.10;17.57;;;;;;;7.06;75.46;99448.28;5078982;28;20459;-77
2021/03/11 03:52:33;;;;;;;22.27;17.43;;;;;;;7.45;74.81;99453.56;5080173;28;20836;-78
2021/03/11 03:54:58;;;;;;;20.77;17.90;;;;;;;7.48;73.35;99445.78;5079238;28;20404;-80
2021/03/11 03:57:25;;;;;;;17.80;15.90;;;;;;;7.85;73.02;99440.63;5078794;28;20215;-78
2021/03/11 03:59:51;;;;;;;22.43;17.03;;;;;;;7.63;73.47;99443.22;5079314;28;20488;-76
2021/03/11 04:02:17;;;;;;;22.97;17.23;;;;;;;7.42;74.24;99447.50;5079287;28;20451;-77
2021/03/11 04:04:45;;;;;;;25.07;17.07;;;;;;;7.45;74.50;99451.81;5079501;28;20482;-77
2021/03/11 04:07:12;;;;;;;23.03;16.80;;;;;;;7.30;74.21;99431.06;5080017;28;20661;-77
2021/03/11 04:09:38;;;;;;;22.43;17.60;;;;;;;7.99;72.15;99438.88;5078698;28;20463;-76
2021/03/11 04:12:05;;;;;;;22.37;16.73;;;;;;;7.41;73.18;99421.56;5078480;28;20484;-77
2021/03/11 04:14:30;;;;;;;20.63;17.77;;;;;;;7.50;74.07;99424.19;5078980;28;20406;-76
2021/03/11 04:16:56;;;;;;;21.50;16.90;;;;;;;7.49;74.15;99429.38;5078428;28;20415;-77
2021/03/11 04:19:23;;;;;;;22.40;17.00;;;;;;;7.49;74.47;99411.22;5079410;28;20222;-77
2021/03/11 04:21:49;;;;;;;21.70;17.17;;;;;;;7.66;74.28;99400.81;5079545;28;20165;-77
2021/03/11 04:24:15;;;;;;;21.73;16.90;;;;;;;7.54;73.20;99392.19;5079921;28;20426;-77
2021/03/11 04:26:40;;;;;;;22.50;16.67;;;;;;;7.66;73.41;99393.03;5090604;28;20222;-75
2021/03/11 04:29:06;;;;;;;21.57;16.80;;;;;;;7.53;74.04;99392.19;5092422;28;20399;-77
2021/03/11 04:31:33;;;;;;;20.87;17.57;;;;;;;7.26;73.49;99391.31;5092528;28;20227;-77
2021/03/11 04:33:59;;;;;;;20.23;15.33;;;;;;;7.39;74.68;99384.41;5090863;28;20659;-76
2021/03/11 04:36:25;;;;;;;20.33;16.43;;;;;;;7.32;73.79;99375.78;5083414;28;20411;-77
2021/03/11 04:38:51;;;;;;;18.90;15.57;;;;;;;6.93;76.63;99367.06;5087226;28;20415;-77
2021/03/11 04:41:17;;;;;;;21.53;16.80;;;;;;;7.55;74.06;99360.22;5082335;28;20506;-77
2021/03/11 04:43:42;;;;;;;21.30;17.43;;;;;;;7.56;73.26;99355.88;5079588;28;20173;-77
2021/03/11 04:46:08;;;;;;;21.03;16.77;;;;;;;7.40;74.71;99350.72;5079003;28;20187;-77
2021/03/11 04:48:34;;;;;;;18.77;15.00;;;;;;;7.65;74.07;99352.44;5082533;28;20201;-77
2021/03/11 04:51:03;;;;;;;24.00;18.10;;;;;;;7.90;72.81;99340.28;5091493;28;20193;-76
2021/03/11 04:53:28;;;;;;;20.13;17.23;;;;;;;8.07;72.04;99340.25;5083564;28;20446;-77
2021/03/11 04:55:54;;;;;;;22.33;16.87;;;;;;;8.06;71.57;99330.72;5079619;28;20411;-77
2021/03/11 04:58:20;;;;;;;18.80;16.07;;;;;;;7.82;73.34;99329.94;5078934;28;20168;-77
2021/03/11 05:00:47;;;;;;;18.27;15.80;;;;;;;7.19;76.17;99336.00;5087252;28;20204;-75
2021/03/11 05:03:13;;;;;;;19.53;17.30;;;;;;;8.02;73.17;99331.59;5090907;28;20232;-75
2021/03/11 05:05:40;;;;;;;18.97;15.97;;;;;;;7.62;74.21;99335.13;5080849;28;20626;-76
2021/03/11 05:08:06;;;;;;;18.00;16.10;;;;;;;7.74;73.21;99319.56;5079173;28;20407;-74
2021/03/11 05:10:32;;;;;;;19.53;15.77;;;;;;;7.50;74.62;99322.19;5078779;28;20872;-76
2021/03/11 05:12:58;;;;;;;17.70;15.80;;;;;;;7.67;74.63;99310.06;5079245;28;20403;-75
2021/03/11 05:15:23;;;;;;;17.93;15.50;;;;;;;7.38;74.48;99307.50;5078507;28;20407;-75
2021/03/11 05:17:48;;;;;;;17.50;15.60;;;;;;;7.70;74.08;99304.00;5078305;28;20179;-75
2021/03/11 05:20:15;;;;;;;18.60;14.90;;;;;;;7.89;73.71;99294.47;5078802;28;20161;-76
2021/03/11 05:22:40;;;;;;;19.67;16.37;;;;;;;7.57;74.72;99287.59;5078309;28;20168;-76
2021/03/11 05:25:07;;;;;;;17.23;14.80;;;;;;;7.79;73.83;99295.34;5077687;28;20442;-76
2021/03/11 05:27:32;;;;;;;19.77;15.30;;;;;;;7.64;74.48;99265.09;5078909;28;20172;-77
2021/03/11 05:29:57;;;;;;;18.27;15.30;;;;;;;7.73;74.32;99265.94;5078059;28;20771;-74
2021/03/11 05:32:23;;;;;;;17.30;14.73;;;;;;;8.12;72.42;99265.81;5077971;28;20173;-77
2021/03/11 05:34:48;;;;;;;17.87;14.63;;;;;;;7.91;73.68;99262.44;5078908;28;20180;-76
2021/03/11 05:37:13;;;;;;;14.97;13.37;;;;;;;7.55;74.93;99269.44;5078113;28;20180;-76
2021/03/11 05:39:39;;;;;;;17.43;14.53;;;;;;;7.93;73.40;99262.44;5078032;28;20573;-77
2021/03/11 05:42:09;;;;;;;15.77;13.67;;;;;;;7.86;73.47;99271.09;5078581;28;20192;-77
2021/03/11 05:44:37;;;;;;;15.40;13.47;;;;;;;7.96;73.48;99252.03;5077979;28;20165;-77
2021/03/11 05:47:04;;;;;;;13.87;12.37;;;;;;;8.02;73.93;99256.34;5060640;28;20412;-76
2021/03/11 05:49:30;;;;;;;15.93;12.73;;;;;;;7.97;73.86;99243.38;5077085;28;20457;-76
2021/03/11 05:51:55;;;;;;;17.70;15.00;;;;;;;7.62;74.12;99240.88;5077180;28;20403;-77
2021/03/11 05:54:20;;;;;;;15.80;14.20;;;;;;;7.83;73.10;99245.16;5077662;28;20179;-76
2021/03/11 05:56:46;;;;;;;16.53;13.07;;;;;;;7.51;74.52;99243.50;5080994;28;20168;-77
2021/03/11 05:59:11;;;;;;;16.90;13.20;;;;;;;7.92;73.69;99250.31;5081210;28;20181;-77
2021/03/11 06:01:36;;;;;;;15.67;13.10;;;;;;;7.95;73.44;99219.16;5081459;28;20247;-78
2021/03/11 06:04:02;;;;;;;16.93;14.07;;;;;;;8.15;73.28;99211.28;5081631;28;20269;-77
2021/03/11 06:06:30;;;;;;;14.83;13.27;;;;;;;7.67;75.46;99188.16;5081031;28;20222;-77
2021/03/11 06:08:56;;;;;;;16.00;12.37;;;;;;;8.16;73.88;99181.00;5082246;28;20173;-77
2021/03/11 06:11:22;;;;;;;16.27;13.77;;;;;;;8.27;72.34;99176.63;5080575;28;20728;-78
2021/03/11 06:13:48;;;;;;;16.57;14.77;;;;;;;8.46;72.06;99164.41;5081577;28;20424;-76
2021/03/11 06:16:19;;;;;;;13.93;12.43;;;;;;;8.50;72.12;99168.69;5082114;28;20169;-77
2021/03/11 06:18:45;;;;;;;14.63;13.03;;;;;;;7.93;72.99;99161.25;5081611;28;20456;-77
2021/03/11 06:21:10;;;;;;;12.73;11.30;;;;;;;8.29;73.15;99168.81;5081529;28;20462;-76
2021/03/11 06:23:36;;;;;;;14.50;13.00;;;;;;;7.61;75.29;99161.38;5081230;28;20433;-77
2021/03/11 06:26:01;;;;;;;14.53;11.70;;;;;;;7.96;73.36;99148.25;5081138;28;20526;-77
2021/03/11 06:28:45;;;;;;;14.50;12.90;;;;;;;7.96;74.02;99137.84;5081315;28;20538;-75
2021/03/11 06:31:17;;;;;;;15.53;12.90;;;;;;;8.15;73.46;99128.22;5081059;28;20212;-77
2021/03/11 06:33:43;;;;;;;15.40;13.17;;;;;;;8.14;73.07;99131.69;5081230;28;20445;-75
2021/03/11 06:36:13;;;;;;;14.20;12.07;;;;;;;7.83;74.41;99126.66;5082094;28;20419;-77
2021/03/11 06:38:38;;;;;;;13.37;11.93;;;;;;;8.12;74.06;99135.16;5082275;28;20604;-76
2021/03/11 06:41:04;;;;;;;13.80;12.33;;;;;;;7.65;74.77;99130.22;5081571;28;20404;-75
2021/03/11 06:43:29;;;;;;;14.47;12.30;;;;;;;7.86;75.41;99099.84;5081120;28;20173;-77
2021/03/11 06:46:09;;;;;;;16.23;13.80;;;;;;;7.70;75.81;99099.94;5082643;28;20169;-78
2021/03/11 06:48:35;;;;;;;14.20;11.80;;;;;;;8.02;74.88;99098.88;5087770;28;20192;-76
2021/03/11 06:51:02;;;;;;;15.17;13.00;;;;;;;8.46;74.12;99093.41;5080105;28;20471;-77
2021/03/11 06:53:29;;;;;;;13.03;11.47;;;;;;;8.43;73.19;99102.06;5081565;28;20169;-78
2021/03/11 06:56:18;;;;;;;15.13;12.67;;;;;;;8.02;74.89;99085.06;5080844;28;20423;-77
2021/03/11 06:58:44;;;;;;;13.47;11.63;;;;;;;8.24;73.65;99084.03;5080854;28;20426;-76
2021/03/11 07:01:09;;;;;;;11.20;9.80;;;;;;;8.37;73.99;99087.38;5080687;28;20872;-78
2021/03/11 07:03:43;;;;;;;13.00;11.60;;;;;;;8.47;73.31;99090.81;5080693;28;20507;-78
2021/03/11 07:06:09;;;;;;;12.80;11.50;;;;;;;8.62;72.33;99070.75;5080901;28;20172;-78
2021/03/11 07:08:34;;;;;;;13.13;11.80;;;;;;;8.89;71.62;99067.91;5080419;28;20415;-78
2021/03/11 07:11:06;;;;;;;11.53;10.43;;;;;;;8.77;71.99;99061.09;5079907;28;20482;-78
2021/03/11 07:13:39;;;;;;;12.47;10.90;;;;;;;8.38;72.53;99059.69;5081452;28;20181;-78
2021/03/11 07:16:11;;;;;;;10.97;9.87;;;;;;;8.84;72.06;99067.09;5080580;28;20697;-76
2021/03/11 07:18:36;;;;;;;12.73;11.30;;;;;;;8.50;73.52;99061.38;5080981;28;20419;-77
2021/03/11 07:21:02;;;;;;;11.03;9.80;;;;;;;8.94;72.21;99041.84;5080541;28;20564;-77
2021/03/11 07:23:28;;;;;;;11.37;10.17;;;;;;;9.05;71.90;99034.81;5080753;28;20216;-78
2021/03/11 07:25:54;;;;;;;11.60;10.40;;;;;;;8.87;71.24;99035.00;5080699;28;20216;-77
2021/03/11 07:28:29;;;;;;;12.07;10.73;;;;;;;8.91;72.02;99054.88;5080569;28;20505;-77
2021/03/11 07:30:58;;;;;;;12.00;10.33;;;;;;;8.93;71.12;99051.41;5079764;28;20450;-77
2021/03/11 07:33:25;;;;;;;11.80;9.63;;;;;;;9.02;72.02;99041.78;5080424;28;20690;-76
2021/03/11 07:35:54;;;;;;;12.90;10.33;;;;;;;9.14;71.79;99040.78;5080376;28;20438;-76
2021/03/11 07:38:22;;;;;;;11.33;10.23;;;;;;;8.90;72.02;99045.34;5080170;28;20407;-77
2021/03/11 07:40:49;;;;;;;12.97;10.50;;;;;;;8.82;72.91;99022.06;5080157;28;20696;-76
2021/03/11 07:43:15;;;;;;;12.13;10.63;;;;;;;9.13;71.74;99010.44;5080518;28;20490;-75
2021/03/11 07:45:41;;;;;;;10.73;9.63;;;;;;;9.26;71.99;99005.06;5079845;28;20502;-75
2021/03/11 07:48:07;;;;;;;11.83;10.53;;;;;;;9.31;72.05;98998.94;5079797;28;20165;-76
2021/03/11 07:50:33;;;;;;;10.40;9.50;;;;;;;9.16;71.55;99008.69;5080377;28;20459;-76
2021/03/11 07:52:59;;;;;;;11.77;10.57;;;;;;;9.20;72.20;98992.16;5079799;28;20472;-75
2021/03/11 07:55:27;;;;;;;11.87;10.57;;;;;;;9.37;71.37;98983.28;5079383;28;20168;-76
2021/03/11 07:57:52;;;;;;;12.23;10.93;;;;;;;9.11;72.27;98979.28;5080550;28;20828;-77
2021/03/11 08:00:24;;;;;;;10.73;9.63;;;;;;;9.13;72.54;98977.50;5079783;28;20424;-76
2021/03/11 08:03:05;;;;;;;11.60;10.50;;;;;;;9.09;72.14;98962.81;5079112;28;20177;-75
2021/03/11 08:05:31;;;;;;;11.93;10.70;;;;;;;9.23;72.48;98966.13;5079895;28;20423;-76
2021/03/11 08:08:12;;;;;;;11.40;10.40;;;;;;;9.49;71.60;98964.03;5079594;28;20411;-77
2021/03/11 08:10:57;;;;;;;11.40;10.30;;;;;;;9.24;72.13;98959.16;5079545;28;20204;-77
2021/03/11 08:13:25;;;;;;;11.60;10.50;;;;;;;9.37;72.15;98950.31;5079670;28;20423;-77
2021/03/11 08:15:50;;;;;;;12.60;10.67;;;;;;;9.51;72.16;98951.84;5079489;28;20690;-77
2021/03/11 08:18:34;;;;;;;11.17;10.07;;;;;;;9.28;72.17;98966.03;5078846;28;20506;-77
2021/03/11 08:21:03;;;;;;;12.73;11.43;;;;;;;9.34;73.88;98945.16;5079170;28;20774;-77
2021/03/11 08:23:30;;;;;;;12.20;10.77;;;;;;;9.24;73.77;98951.34;5079150;28;20447;-77
2021/03/11 08:25:55;;;;;;;10.90;9.80;;;;;;;9.25;72.92;98930.56;5078378;28;20459;-78
2021/03/11 08:28:21;;;;;;;11.27;10.13;;;;;;;9.81;71.45;98923.63;5078667;28;20442;-78
2021/03/11 08:30:46;;;;;;;12.07;10.87;;;;;;;9.83;71.29;98934.88;5079581;28;20288;-78
2021/03/11 08:33:34;;;;;;;12.20;10.90;;;;;;;10.10;69.66;98912.72;5079160;28;20194;-77
2021/03/11 08:36:00;;;;;;;12.50;10.70;;;;;;;9.98;69.56;98910.34;5079656;28;20173;-78
2021/03/11 08:38:31;;;;;;;11.50;10.27;;;;;;;9.97;70.60;98917.28;5082758;28;20418;-77
2021/03/11 08:41:01;;;;;;;14.07;11.37;;;;;;;9.64;71.33;98900.50;5079055;28;20415;-77
2021/03/11 08:43:41;;;;;;;11.67;10.57;;;;;;;10.11;70.92;98904.88;5085848;28;20416;-76
2021/03/11 08:46:15;;;;;;;11.47;10.27;;;;;;;9.82;70.99;98897.56;5083487;28;20425;-76
2021/03/11 08:48:42;;;;;;;12.27;11.07;;;;;;;9.84;72.47;98884.56;5079014;28;20403;-75
2021/03/11 08:51:32;;;;;;;12.90;11.33;;;;;;;9.80;72.70;98857.72;5077101;28;20731;-72
2021/03/11 08:54:01;;;;;;;13.30;12.00;;;;;;;10.01;71.65;98859.09;5077739;28;20423;-73
2021/03/11 08:56:27;;;;;;;10.63;9.50;;;;;;;9.82;72.60;98876.75;5078648;28;20419;-73
2021/03/11 08:58:53;;;;;;;10.90;9.80;;;;;;;10.21;71.04;98863.06;5078376;28;20411;-72
2021/03/11 09:01:49;;;;;;;11.00;9.90;;;;;;;10.08;70.99;98854.59;5078358;28;20208;-72
2021/03/11 09:04:17;;;;;;;11.20;10.10;;;;;;;10.30;70.04;98868.09;5078806;28;20439;-72
2021/03/11 09:07:05;;;;;;;10.70;9.43;;;;;;;10.20;69.66;98851.78;5078224;28;20411;-74
2021/03/11 09:09:45;;;;;;;12.57;11.37;;;;;;;10.20;70.46;98856.13;5078213;28;20692;-72
2021/03/11 09:12:12;;;;;;;12.17;10.97;;;;;;;10.29;69.83;98859.41;5078324;28;20461;-71
2021/03/11 09:14:40;;;;;;;12.20;11.10;;;;;;;10.67;68.87;98851.72;5078239;28;20703;-73
2021/03/11 09:17:13;;;;;;;12.10;10.93;;;;;;;11.07;67.82;98839.59;5078273;28;20407;-72
2021/03/11 09:19:47;;;;;;;12.10;10.23;;;;;;;11.00;67.36;98851.03;5078142;28;20403;-72
2021/03/11 09:22:20;;;;;;;11.80;10.53;;;;;;;10.71;68.83;98840.34;5078074;28;20708;-75
2021/03/11 09:25:04;;;;;;;10.17;9.17;;;;;;;11.02;67.35;98834.47;5078176;28;20813;-72
2021/03/11 09:27:31;;;;;;;11.17;10.07;;;;;;;10.95;67.30;98823.31;5077302;28;20496;-70
2021/03/11 09:30:01;;;;;;;10.40;9.30;;;;;;;10.79;68.71;98824.56;5077257;28;20463;-70
2021/03/11 09:32:27;;;;;;;11.60;9.73;;;;;;;11.21;66.88;98821.00;5077151;28;20435;-71
2021/03/11 09:35:05;;;;;;;11.47;10.30;;;;;;;11.50;65.54;98803.75;5077652;28;20537;-74
2021/03/11 09:37:46;;;;;;;10.93;9.83;;;;;;;11.25;65.82;98802.59;5078083;28;20418;-71
2021/03/11 09:40:13;;;;;;;11.30;9.70;;;;;;;12.81;61.56;98787.06;5078071;28;20426;-72
2021/03/11 09:43:01;;;;;;;9.73;8.73;;;;;;;14.94;56.02;98761.28;5077855;28;20760;-70
2021/03/11 09:45:38;;;;;;;9.10;8.30;;;;;;;16.05;52.45;98763.66;5077980;28;20447;-68
2021/03/11 09:48:11;;;;;;;8.20;7.30;;;;;;;16.31;51.37;98743.22;5077799;28;20436;-70
2021/03/11 09:50:49;;;;;;;7.83;7.03;;;;;;;16.42;50.01;98732.19;5077653;28;20433;-69
2021/03/11 09:53:14;;;;;;;7.43;6.83;;;;;;;16.10;50.34;98743.28;5077874;28;20466;-71
2021/03/11 09:55:40;;;;;;;7.97;7.17;;;;;;;16.74;48.59;98732.47;5078176;28;20390;-70
2021/03/11 09:58:05;;;;;;;8.40;7.60;;;;;;;16.40;48.40;98719.13;5077569;28;20189;-71
2021/03/11 10:00:32;;;;;;;8.63;7.70;;;;;;;17.98;46.14;98735.06;5077733;28;20207;-70
2021/03/11 10:02:57;;;;;;;8.40;6.67;;;;;;;17.08;46.92;98709.78;5077394;28;20165;-71
2021/03/11 10:05:23;;;;;;;7.20;6.60;;;;;;;17.47;45.87;98709.53;5077585;28;20814;-70
2021/03/11 10:07:57;;;;;;;7.47;6.77;;;;;;;16.85;46.64;98730.16;5077579;28;20181;-72
2021/03/11 10:10:24;;;;;;;7.60;6.90;;;;;;;17.38;45.68;98690.72;5077814;28;20203;-71
2021/03/11 10:12:50;;;;;;;9.13;8.27;;;;;;;16.53;47.00;98702.75;5077398;28;20502;-73
2021/03/11 10:15:17;;;;;;;8.13;7.20;;;;;;;15.74;48.35;98701.91;5077642;28;20576;-72
2021/03/11 10:17:43;;;;;;;9.90;6.53;;;;;;;15.49;49.40;98683.75;5077723;28;20471;-73
2021/03/11 10:20:28;;;;;;;7.63;6.93;;;;;;;16.44;47.56;98678.59;5076847;28;20394;-75
2021/03/11 10:23:13;;;;;;;7.60;6.67;;;;;;;14.92;50.33;98652.06;5077320;28;20168;-74
2021/03/11 10:25:38;;;;;;;7.13;6.00;;;;;;;15.75;48.34;98664.22;5077355;28;20481;-72
2021/03/11 10:28:04;;;;;;;8.57;6.57;;;;;;;15.20;49.49;98657.00;5077401;28;20422;-71
2021/03/11 10:30:29;;;;;;;8.90;6.70;;;;;;;14.81;50.18;98655.13;5077233;28;20271;-72
2021/03/11 10:32:55;;;;;;;9.57;6.83;;;;;;;14.83;50.20;98642.81;5076499;28;20192;-71
2021/03/11 10:35:38;;;;;;;8.47;6.90;;;;;;;14.58;51.27;98640.31;5077598;28;20428;-70
2021/03/11 10:38:23;;;;;;;8.00;7.20;;;;;;;14.21;52.82;98637.38;5078717;28;20414;-70
2021/03/11 10:40:49;;;;;;;8.20;7.13;;;;;;;14.36;52.50;98658.66;5079542;28;20433;-71
2021/03/11 10:43:29;;;;;;;8.73;6.63;;;;;;;13.80;53.34;98639.81;5081756;28;20498;-70
2021/03/11 10:45:54;;;;;;;7.73;6.50;;;;;;;14.18;52.14;98626.16;5080096;28;20218;-71
2021/03/11 10:48:19;;;;;;;7.30;6.60;;;;;;;13.77;53.17;98632.94;5081065;28;20801;-72
2021/03/11 10:50:49;;;;;;;8.70;7.10;;;;;;;13.54;54.23;98625.06;5080584;28;20205;-71
2021/03/11 10:53:16;;;;;;;7.93;7.13;;;;;;;13.77;53.65;98621.59;5081250;28;20523;-71
2021/03/11 10:55:45;;;;;;;7.40;6.77;;;;;;;14.18;52.34;98642.75;5080910;28;20393;-69
2021/03/11 10:58:21;;;;;;;7.67;6.87;;;;;;;14.15;51.95;98630.63;5080727;28;20476;-70
2021/03/11 11:00:48;;;;;;;7.03;6.30;;;;;;;13.67;53.14;98613.22;5085277;28;20422;-70
2021/03/11 11:03:13;;;;;;;6.40;5.63;;;;;;;13.56;53.45;98623.25;5083299;28;20456;-70
2021/03/11 11:05:38;;;;;;;6.57;5.97;;;;;;;14.06;52.46;98646.69;5088891;28;20689;-72
2021/03/11 11:08:07;;;;;;;6.80;6.17;;;;;;;13.58;53.62;98629.28;5086908;28;20199;-72
2021/03/11 11:10:32;;;;;;;6.47;5.87;;;;;;;13.80;53.41;98631.94;5083224;28;20204;-71
2021/03/11 11:12:58;;;;;;;5.77;5.13;;;;;;;13.54;53.64;98620.69;5083356;28;20400;-72
2021/03/11 11:15:26;;;;;;;6.20;5.60;;;;;;;13.27;53.89;98617.25;5083915;28;20244;-72
2021/03/11 11:17:51;;;;;;;5.53;4.97;;;;;;;13.44;53.64;98627.19;5082844;28;20238;-71
2021/03/11 11:20:18;;;;;;;5.77;5.10;;;;;;;14.80;49.45;98601.81;5081440;28;20402;-71
2021/03/11 11:22:43;;;;;;;5.33;4.70;;;;;;;15.28;48.14;98606.78;5080918;28;20419;-71
2021/03/11 11:25:09;;;;;;;5.40;4.50;;;;;;;15.29;47.58;98596.22;5083747;28;20393;-72
2021/03/11 11:27:35;;;;;;;5.53;4.97;;;;;;;16.25;45.80;98588.38;5086350;28;20189;-72
2021/03/11 11:30:01;;;;;;;6.97;4.87;;;;;;;15.84;45.41;98573.63;5086113;28;20451;-72
2021/03/11 11:32:26;;;;;;;5.80;4.80;;;;;;;14.91;47.63;98582.13;5083509;28;20274;-71